Flight Track Log - Related Links

Times and Time Zones

All times are in EDT time to prevent confusion due to time zone crossing. See the RPA3392 flight status page for this flight to view local times or setup timezone preferences in your user account.

Time Position Orientation Groundspeed Altitude Reporting Facility
EDT Latitude Longitude Course Direction KTS MPH feet Rate Location/Type
Sun 06:04:15 PM 44.9000 -93.2333 117° Southeast 165 190 1,900  Level Minneapolis TRACON
Sun 06:05:15 PM 44.9439 -93.2408 353° North 196 226 3,000 1,721 Climbing Minneapolis Center
Sun 06:06:00 PM 44.7616 -92.7829 111° Southeast  Level Estimated
Sun 06:06:17 PM 45.0119 -93.2325 North 243 280 5,400  Level Minneapolis Center
Sun 06:07:00 PM 44.7211 -92.6370 113° Southeast  Level Estimated
Sun 06:07:18 PM 45.0556 -93.1406 56° Northeast 300 345 8,000  Level Minneapolis Center
Sun 06:08:00 PM 44.6604 -92.5058 123° Southeast  Level FlightAware Approximate
Sun 06:08:20 PM 45.0675 -92.9917 83° East 329 379 10,600  Level Minneapolis Center
Sun 06:09:00 PM 44.6075 -92.3580 117° Southeast  Level FlightAware Approximate
Sun 06:09:22 PM 45.0067 -92.8883 130° Southeast 341 392 13,000  Level Minneapolis Center
Sun 06:10:24 PM 44.9406 -92.7864 132° Southeast 349 402 14,900 1,935 Climbing Minneapolis Center
Sun 06:11:26 PM 44.8689 -92.6778 133° Southeast 374 430 17,000 2,032 Climbing Minneapolis Center
Sun 06:12:28 PM 44.7961 -92.5692 133° Southeast 379 436 19,100 1,935 Climbing Minneapolis Center
Sun 06:13:30 PM 44.7219 -92.4564 133° Southeast 388 447 21,000 1,694 Climbing Minneapolis Center
Sun 06:14:32 PM 44.6453 -92.3433 134° Southeast 396 456 22,600 1,839 Climbing Minneapolis Center
Sun 06:15:34 PM 44.5508 -92.1997 133° Southeast 412 474 24,800 1,854 Climbing Minneapolis Center
Sun 06:16:35 PM 44.4828 -92.0678 126° Southeast 417 480 26,400 1,415 Climbing Minneapolis Center
Sun 06:17:37 PM 44.4136 -91.9361 126° Southeast 419 482 27,700 1,113 Climbing Minneapolis Center
Sun 06:18:39 PM 44.3469 -91.7956 124° Southeast 429 494 28,700 1,113 Climbing Minneapolis Center
Sun 06:19:41 PM 44.2881 -91.6450 119° Southeast 439 505 30,000 1,065 Climbing Minneapolis Center
Sun 06:20:43 PM 44.2319 -91.4931 117° Southeast 441 507 30,900 1,113 Climbing Minneapolis Center
Sun 06:21:45 PM 44.1619 -91.3111 118° Southeast 444 511 32,300 1,016 Climbing Minneapolis Center
Sun 06:22:47 PM 44.1064 -91.1597 117° Southeast 445 512 33,000 871 Climbing Minneapolis Center
Sun 06:23:49 PM 44.0492 -91.0106 118° Southeast 443 510 34,100 919 Climbing Minneapolis Center
Sun 06:24:51 PM 43.9933 -90.8706 119° Southeast 431 496 34,900 435 Climbing Minneapolis Center
Sun 06:25:53 PM 43.9361 -90.7258 119° Southeast 430 495 35,000 44 Climbing Minneapolis Center
Sun 06:27:07 PM 43.8675 -90.5522 119° Southeast 431 496 35,000  Level Chicago Center
Sun 06:28:09 PM 43.8000 -90.3833 119° Southeast 422 486 35,000  Level Chicago Center
Sun 06:28:59 PM 43.7564 -90.2692 118° Southeast 420 483 35,000  Level Minneapolis Center
Sun 06:30:01 PM 43.7108 -90.1053 111° Southeast 425 489 35,000  Level Minneapolis Center
Sun 06:31:03 PM 43.6850 -89.9450 103° East 427 491 35,000  Level Minneapolis Center
Sun 06:32:05 PM 43.6581 -89.7842 103° East 429 494 35,000  Level Minneapolis Center
Sun 06:33:07 PM 43.6286 -89.6258 104° East 427 491 35,000  Level Minneapolis Center
Sun 06:34:09 PM 43.5994 -89.4681 104° East 424 488 35,000  Level Minneapolis Center
Sun 06:35:11 PM 43.5653 -89.2814 104° East 429 494 35,000  Level Minneapolis Center
Sun 06:36:13 PM 43.5350 -89.1222 105° East 430 495 35,000  Level Minneapolis Center
Sun 06:37:15 PM 43.5044 -88.9658 105° East 426 490 35,000  Level Minneapolis Center
Sun 06:38:17 PM 43.4747 -88.8081 105° East 426 490 35,000  Level Minneapolis Center
Sun 06:39:19 PM 43.4439 -88.6514 105° East 426 490 35,000  Level Minneapolis Center
Sun 06:40:32 PM 43.4003 -88.4389 106° East 434 499 35,000  Level Chicago Center
Sun 06:41:34 PM 43.3736 -88.2892 104° East 431 496 35,000  Level Chicago Center
Sun 06:42:35 PM 43.3436 -88.1347 105° East 422 486 35,000  Level Chicago Center
Sun 06:43:37 PM 43.3119 -87.9767 105° East 428 493 35,000  Level Chicago Center
Sun 06:44:39 PM 43.2767 -87.7956 105° East 423 487 35,000  Level Chicago Center
Sun 06:45:41 PM 43.2444 -87.6403 106° East 423 487 35,000  Level Chicago Center
Sun 06:46:42 PM 43.2139 -87.4842 105° East 423 487 35,000  Level Chicago Center
Sun 06:47:44 PM 43.1789 -87.3181 106° East 422 486 35,000  Level Chicago Center
Sun 06:48:46 PM 43.1467 -87.1631 106° East 423 487 35,000  Level Chicago Center
Sun 06:49:48 PM 43.1136 -87.0072 106° East 428 493 35,000  Level Chicago Center
Sun 06:50:49 PM 43.0819 -86.8542 106° East 421 484 35,000  Level Chicago Center
Sun 06:51:51 PM 43.0494 -86.7028 106° East 418 481 35,000  Level Chicago Center
Sun 06:52:53 PM 43.0172 -86.5506 106° East 418 481 35,000  Level Chicago Center
Sun 06:53:54 PM 42.9847 -86.4025 107° East 413 475 35,000  Level Chicago Center
Sun 06:54:56 PM 42.9456 -86.2228 107° East 416 479 35,000  Level Chicago Center
Sun 06:55:57 PM 42.9117 -86.0722 107° East 423 487 35,000  Level Chicago Center
Sun 06:56:59 PM 42.8792 -85.9197 106° East 430 495 35,000  Level Chicago Center
Sun 06:58:01 PM 42.8469 -85.7683 106° East 425 489 35,000  Level Chicago Center
Sun 06:59:02 PM 42.8131 -85.6169 107° East 423 487 35,000  Level Chicago Center
Sun 07:00:04 PM 42.7664 -85.4364 109° East 426 490 35,000  Level Chicago Center
Sun 07:01:05 PM 42.7161 -85.2953 116° Southeast 418 481 35,000  Level Chicago Center
Sun 07:02:07 PM 42.6667 -85.1522 115° Southeast 419 482 35,000  Level Chicago Center
Sun 07:03:09 PM 42.6161 -85.0108 116° Southeast 418 481 35,000  Level Chicago Center
Sun 07:04:10 PM 42.5661 -84.8683 115° Southeast 419 482 35,000  Level Chicago Center
Sun 07:05:12 PM 42.5147 -84.7267 116° Southeast 421 484 35,000  Level Chicago Center
Sun 07:06:13 PM 42.4644 -84.5839 115° Southeast 422 486 35,000  Level Chicago Center
Sun 07:07:15 PM 42.4044 -84.4189 116° Southeast 409 471 35,000  Level Chicago Center
Sun 07:08:11 PM 42.3547 -84.2894 117° Southeast 414 476 35,000  Level Cleveland Center
Sun 07:09:11 PM 42.3028 -84.1517 117° Southeast 414 476 35,000  Level Cleveland Center
Sun 07:10:11 PM 42.2506 -84.0142 117° Southeast 414 476 35,000  Level Cleveland Center
Sun 07:11:11 PM 42.2003 -83.8767 116° Southeast 409 471 35,000  Level Cleveland Center
Sun 07:12:11 PM 42.1481 -83.7339 116° Southeast 409 471 35,000  Level Cleveland Center
Sun 07:13:11 PM 42.1014 -83.6114 117° Southeast 414 476 35,000  Level Cleveland Center
Sun 07:14:11 PM 42.0486 -83.4717 117° Southeast 414 476 35,000  Level Cleveland Center
Sun 07:15:11 PM 41.9792 -83.3317 124° Southeast 414 476 35,000  Level Cleveland Center
Sun 07:16:11 PM 41.9133 -83.2061 125° Southeast 409 471 35,000  Level Cleveland Center
Sun 07:17:11 PM 41.8533 -83.0922 125° Southeast 415 478 35,000  Level Cleveland Center
Sun 07:18:11 PM 41.7872 -82.9669 125° Southeast 415 478 35,000  Level Cleveland Center
Sun 07:19:11 PM 41.7189 -82.8419 126° Southeast 415 478 35,000  Level Cleveland Center
Sun 07:20:11 PM 41.6525 -82.7147 125° Southeast 415 478 35,000  Level Cleveland Center
Sun 07:21:11 PM 41.5797 -82.5789 126° Southeast 415 478 35,000  Level Cleveland Center
Sun 07:22:11 PM 41.5153 -82.4522 124° Southeast 415 478 35,000  Level Cleveland Center
Sun 07:23:11 PM 41.4464 -82.3283 127° Southeast 415 478 35,000  Level Cleveland Center
Sun 07:24:11 PM 41.3794 -82.2047 126° Southeast 415 478 35,000  Level Cleveland Center
Sun 07:25:11 PM 41.3017 -82.0978 134° Southeast 410 472 35,000  Level Cleveland Center
Sun 07:26:11 PM 41.2069 -82.0044 143° Southeast 409 471 35,000  Level Cleveland Center
Sun 07:27:11 PM 41.1119 -81.9169 145° Southeast 417 480 35,000  Level Cleveland Center
Sun 07:28:11 PM 41.0236 -81.8217 141° Southeast 415 478 35,000  Level Cleveland Center
Sun 07:29:11 PM 40.9328 -81.7319 143° Southeast 409 471 35,000  Level Cleveland Center
Sun 07:30:11 PM 40.8439 -81.6397 142° Southeast 404 465 35,000  Level Cleveland Center
Sun 07:31:11 PM 40.7633 -81.5589 143° Southeast 404 465 35,000  Level Cleveland Center
Sun 07:32:11 PM 40.6767 -81.4700 142° Southeast 404 465 35,000  Level Cleveland Center
Sun 07:33:11 PM 40.5814 -81.3678 141° Southeast 404 465 35,000  Level Cleveland Center
Sun 07:34:11 PM 40.4903 -81.2819 144° Southeast 404 465 35,000  Level Cleveland Center
Sun 07:35:11 PM 40.3969 -81.1883 143° Southeast 409 471 35,000  Level Cleveland Center
Sun 07:36:11 PM 40.3225 -81.0733 130° Southeast 414 476 35,000  Level Cleveland Center
Sun 07:37:11 PM 40.2561 -80.9558 126° Southeast 409 471 35,000  Level Cleveland Center
Sun 07:38:11 PM 40.1900 -80.8358 126° Southeast 404 465 35,000  Level Cleveland Center
Sun 07:39:11 PM 40.1214 -80.7161 127° Southeast 404 465 35,000  Level Cleveland Center
Sun 07:40:11 PM 40.0525 -80.5994 128° Southeast 410 472 35,000 -50 Level Cleveland Center
Sun 07:41:11 PM 39.9836 -80.4800 127° Southeast 415 478 34,900 -850 Descending Cleveland Center
Sun 07:42:11 PM 39.9189 -80.3747 129° Southeast 415 478 33,300 -1,950 Descending Cleveland Center
Sun 07:43:11 PM 39.8311 -80.2858 142° Southeast 403 464 31,000 -1,150 Descending Cleveland Center
Sun 07:44:11 PM 39.7456 -80.1836 137° Southeast 403 464 31,000  Level Cleveland Center
Sun 07:45:11 PM 39.6803 -80.0597 124° Southeast 411 473 31,000  Level Cleveland Center
Sun 07:46:40 PM 39.5856 -79.8758 124° Southeast 432 497 31,000  Level Washington Center
Sun 07:47:38 PM 39.5192 -79.7481 124° Southeast 432 497 31,000  Level Washington Center
Sun 07:48:40 PM 39.4544 -79.6233 124° Southeast 432 497 31,000 -400 Level Washington Center
Sun 07:49:38 PM 39.3858 -79.4961 125° Southeast 432 497 30,200 -1,311 Descending Washington Center
Sun 07:50:39 PM 39.3444 -79.3517 110° East 432 497 28,400 -1,770 Descending Washington Center
Sun 07:51:40 PM 39.3181 -79.1944 102° East 432 497 26,600 -1,765 Descending Washington Center
Sun 07:52:38 PM 39.2911 -79.0511 104° East 427 491 24,900 -1,729 Descending Washington Center
Sun 07:53:38 PM 39.2658 -78.9050 103° East 421 484 23,200 -1,636 Descending Washington Center
Sun 07:54:39 PM 39.2367 -78.7536 104° East 414 476 21,600 -2,016 Descending Washington Center
Sun 07:55:40 PM 39.2108 -78.6186 104° East 398 458 19,100 -2,370 Descending Washington Center
Sun 07:56:38 PM 39.1872 -78.4864 103° East 387 445 16,900 -2,067 Descending Washington Center
Sun 07:57:39 PM 39.1611 -78.3569 105° East 374 430 15,000 -934 Descending Washington Center
Sun 07:58:40 PM 39.1306 -78.2300 107° East 374 430 15,000 -504 Level Washington Center
Sun 07:59:38 PM 39.0978 -78.1031 108° East 374 430 14,000 -504 Descending Washington Center
Sun 08:00:39 PM 39.0669 -77.9817 108° East 364 419 14,000 -885 Level Washington Center
Sun 08:01:40 PM 39.0378 -77.8686 108° East 351 404 12,200 -1,835 Descending Washington Center
Sun 08:02:40 PM 39.0106 -77.7608 108° East 324 373 10,300 -1,563 Descending Washington Center
Sun 08:03:39 PM 38.9853 -77.6611 108° East 303 349 9,100 -1,069 Descending Washington Center
Sun 08:04:21 PM 38.9667 -77.5833 107° East 297 342 8,500 -765 Descending Potomac TRACON
Sun 08:05:21 PM 38.9500 -77.4833 102° East 262 302 7,800 -950 Descending Potomac TRACON
Sun 08:06:21 PM 38.9667 -77.4000 76° East 243 280 6,600 -1,200 Descending Potomac TRACON
Sun 08:07:21 PM 38.9667 -77.3167 90° East 239 275 5,400 -1,350 Descending Potomac TRACON
Sun 08:08:21 PM 38.9833 -77.2333 76° East 237 273 3,900 -1,500 Descending Potomac TRACON

Login

Don't have an account? Register now (free) for customized features, flight alerts, and more!